Time;durP1;ratioP1;P1;durP2;ratioP2;P2;SDS_P1;SDS_P2;PMS_P1;PMS_P2;Temp;Humidity;BMP_temperature;BMP_pressure;BME280_temperature;BME280_humidity;BME280_pressure;Samples;Min_cycle;Max_cycle;Signal;HPM_P1;HPM_P2
2022/12/11 00:00:50;;;;;;;125.63;28.80;;;;;;;-0.40;100.00;101118.81;4997866;28;20129;-76
2022/12/11 00:03:17;;;;;;;118.60;26.55;;;;;;;-0.44;100.00;101111.00;4992848;28;20046;-76
2022/12/11 00:05:43;;;;;;;122.57;28.15;;;;;;;-0.42;100.00;101115.31;4995899;28;20034;-73
2022/12/11 00:08:09;;;;;;;144.43;29.02;;;;;;;-0.43;100.00;101115.34;4986272;28;20380;-75
2022/12/11 00:10:34;;;;;;;127.57;28.45;;;;;;;-0.40;100.00;101116.19;4998108;28;20045;-76
2022/12/11 00:13:00;;;;;;;130.32;27.73;;;;;;;-0.43;100.00;101110.97;4999969;28;20044;-76
2022/12/11 00:15:25;;;;;;;136.38;29.70;;;;;;;-0.41;100.00;101110.94;5001125;28;20084;-76
2022/12/11 00:17:51;;;;;;;150.30;30.70;;;;;;;-0.47;100.00;101109.28;4996983;28;20040;-74
2022/12/11 00:20:16;;;;;;;147.23;31.90;;;;;;;-0.36;100.00;101122.22;4994850;28;21059;-75
2022/12/11 00:22:42;;;;;;;144.98;30.10;;;;;;;-0.41;100.00;101116.19;4995089;28;20070;-75
2022/12/11 00:25:08;;;;;;;138.18;31.08;;;;;;;-0.37;100.00;101123.13;4998738;28;20042;-76
2022/12/11 00:27:33;;;;;;;165.00;33.78;;;;;;;-0.38;100.00;101117.00;4995771;28;20038;-77
2022/12/11 00:29:59;;;;;;;173.05;37.72;;;;;;;-0.42;100.00;101117.94;4993967;28;20041;-75
2022/12/11 00:32:25;;;;;;;161.85;33.60;;;;;;;-0.42;100.00;101115.31;4999829;28;20025;-75
2022/12/11 00:34:51;;;;;;;196.95;37.63;;;;;;;-0.42;100.00;101124.94;5001051;28;20049;-75
2022/12/11 00:37:16;;;;;;;169.13;33.72;;;;;;;-0.44;100.00;101122.34;4997007;28;20044;-75
2022/12/11 00:39:42;;;;;;;143.23;33.78;;;;;;;-0.43;100.00;101118.84;5029530;28;20042;-74
2022/12/11 00:42:07;;;;;;;189.18;35.58;;;;;;;-0.40;100.00;101120.53;5004016;28;20038;-73
2022/12/11 00:44:33;;;;;;;195.73;35.63;;;;;;;-0.46;100.00;101118.88;5028617;28;20495;-73
2022/12/11 00:46:58;;;;;;;171.88;34.85;;;;;;;-0.45;100.00;101111.88;5002974;28;20487;-75
2022/12/11 00:49:27;;;;;;;172.02;34.60;;;;;;;-0.48;100.00;101119.78;5000474;28;20038;-73
2022/12/11 00:51:52;;;;;;;177.30;36.58;;;;;;;-0.45;100.00;101110.16;5003200;28;20046;-76
2022/12/11 00:54:18;;;;;;;182.93;36.67;;;;;;;-0.48;100.00;101112.78;5001107;28;20045;-74
2022/12/11 00:56:43;;;;;;;209.48;34.42;;;;;;;-0.43;100.00;101112.72;5003671;28;20042;-73
2022/12/11 00:59:09;;;;;;;183.52;36.28;;;;;;;-0.46;100.00;101099.66;4989919;28;20030;-77
2022/12/11 01:01:34;;;;;;;186.25;34.33;;;;;;;-0.42;100.00;101091.75;5002928;28;20042;-74
2022/12/11 01:04:00;;;;;;;174.60;37.13;;;;;;;-0.42;100.00;101093.50;4995214;28;20097;-77
2022/12/11 01:06:26;;;;;;;139.35;35.03;;;;;;;-0.39;100.00;101093.47;4996761;28;20423;-77
2022/12/11 01:10:22;;;;;;;173.95;33.63;;;;;;;-0.35;100.00;101093.41;4986023;28;20057;-76
2022/12/11 01:11:39;;;;;;;179.45;36.53;;;;;;;-0.36;100.00;101098.66;5000437;28;20056;-75
2022/12/11 01:14:06;;;;;;;175.10;35.70;;;;;;;-0.31;100.00;101097.69;4997294;28;20050;-75
2022/12/11 01:16:31;;;;;;;170.20;35.90;;;;;;;-0.36;100.00;101090.78;4999971;28;20040;-75
2022/12/11 01:18:57;;;;;;;172.52;36.55;;;;;;;-0.36;100.00;101099.50;4995509;28;20038;-74
2022/12/11 01:21:23;;;;;;;175.05;34.13;;;;;;;-0.38;100.00;101100.44;5004241;28;20040;-74
2022/12/11 01:23:50;;;;;;;157.77;34.70;;;;;;;-0.35;100.00;101100.38;4996986;28;20050;-75
2022/12/11 01:26:15;;;;;;;154.88;34.20;;;;;;;-0.38;100.00;101103.06;5006723;28;20050;-74
2022/12/11 01:28:42;;;;;;;145.35;32.20;;;;;;;-0.28;100.00;101099.41;5006674;28;20038;-75
2022/12/11 01:31:09;;;;;;;163.02;35.13;;;;;;;-0.30;100.00;101098.59;4988869;28;20046;-75
2022/12/11 01:33:35;;;;;;;155.05;33.35;;;;;;;-0.37;100.00;101100.41;4995460;28;20050;-75
2022/12/11 01:36:05;;;;;;;141.93;33.38;;;;;;;-0.29;100.00;101095.94;5007390;28;20039;-74
2022/12/11 01:38:30;;;;;;;146.48;32.72;;;;;;;-0.27;100.00;101093.28;5002189;28;20121;-75
2022/12/11 01:40:56;;;;;;;141.75;32.67;;;;;;;-0.26;100.00;101089.75;5007687;28;20041;-75
2022/12/11 01:43:21;;;;;;;143.45;28.73;;;;;;;-0.19;100.00;101085.31;5001753;28;20053;-76
2022/12/11 01:45:47;;;;;;;141.95;34.05;;;;;;;-0.19;100.00;101080.06;5000184;28;20867;-76
2022/12/11 01:48:18;;;;;;;136.95;32.33;;;;;;;-0.21;100.00;101076.59;5002708;28;20050;-74
2022/12/11 01:50:53;;;;;;;154.48;32.38;;;;;;;-0.21;100.00;101076.59;4996850;28;20099;-74
2022/12/11 01:53:41;;;;;;;139.07;30.10;;;;;;;-0.16;100.00;101080.00;5002908;28;20042;-77
2022/12/11 01:56:09;;;;;;;153.20;30.10;;;;;;;-0.16;100.00;101083.50;4999513;28;20826;-74
2022/12/11 01:58:42;;;;;;;131.30;30.25;;;;;;;-0.12;100.00;101086.94;5001677;28;20092;-74
2022/12/11 02:01:13;;;;;;;144.93;30.98;;;;;;;-0.14;100.00;101079.13;5002522;28;20042;-74
2022/12/11 02:03:39;;;;;;;131.23;29.80;;;;;;;-0.11;100.00;101073.81;4997062;28;20657;-76
2022/12/11 02:06:04;;;;;;;119.63;30.48;;;;;;;-0.14;100.00;101073.00;4996588;28;20070;-75
2022/12/11 02:08:30;;;;;;;146.50;30.15;;;;;;;-0.18;100.00;101068.69;5003220;28;20502;-77
2022/12/11 02:11:17;;;;;;;153.80;31.00;;;;;;;-0.22;100.00;101067.00;4996825;28;20045;-76
2022/12/11 02:13:53;;;;;;;144.18;32.47;;;;;;;-0.23;100.00;101078.38;5003902;28;20038;-76
2022/12/11 02:16:28;;;;;;;129.75;29.75;;;;;;;-0.20;100.00;101081.84;5007462;28;20088;-76
2022/12/11 02:19:17;;;;;;;145.15;32.40;;;;;;;-0.22;100.00;101080.13;5005397;28;20037;-75
2022/12/11 02:21:48;;;;;;;176.23;32.63;;;;;;;-0.26;100.00;101085.38;5007114;28;20061;-74
2022/12/11 02:25:07;;;;;;;161.07;33.57;;;;;;;-0.21;100.00;101081.84;5003212;28;20037;-75
2022/12/11 02:27:45;;;;;;;181.15;33.70;;;;;;;-0.25;100.00;101086.28;5036290;28;20474;-75
2022/12/11 02:30:14;;;;;;;166.35;32.95;;;;;;;-0.30;100.00;101086.34;5043356;28;20104;-74
2022/12/11 02:32:52;;;;;;;173.43;33.83;;;;;;;-0.33;100.00;101078.53;5043150;28;20068;-74
2022/12/11 02:35:33;;;;;;;188.32;35.17;;;;;;;-0.26;100.00;101084.53;5035824;28;20234;-73
2022/12/11 02:38:04;;;;;;;189.35;34.35;;;;;;;-0.31;100.00;101071.50;5030729;28;20123;-76
2022/12/11 02:40:34;;;;;;;177.93;34.88;;;;;;;-0.18;100.00;101074.81;5035448;28;20087;-75
2022/12/11 02:43:03;;;;;;;191.98;37.70;;;;;;;-0.20;100.00;101070.47;5038148;28;20087;-74
2022/12/11 02:45:30;;;;;;;206.63;39.30;;;;;;;-0.27;100.00;101060.06;5039516;28;20143;-77
2022/12/11 02:47:59;;;;;;;201.27;37.78;;;;;;;-0.28;100.00;101060.97;5041556;28;20044;-75
2022/12/11 02:50:26;;;;;;;248.40;38.90;;;;;;;-0.30;100.00;101064.53;5026430;28;20044;-76
2022/12/11 02:52:56;;;;;;;258.83;42.60;;;;;;;-0.27;100.00;101060.06;5037265;28;20147;-76
2022/12/11 02:55:24;;;;;;;248.25;40.65;;;;;;;-0.26;100.00;101059.19;5028205;28;20037;-76
2022/12/11 02:58:16;;;;;;;206.88;38.97;;;;;;;-0.24;100.00;101063.56;5027332;28;20053;-75
2022/12/11 03:00:43;;;;;;;273.35;40.97;;;;;;;-0.24;100.00;101066.19;4994328;28;20048;-74
2022/12/11 03:03:09;;;;;;;201.23;35.28;;;;;;;-0.22;100.00;101057.38;5031212;28;20132;-77
2022/12/11 03:05:35;;;;;;;277.65;43.78;;;;;;;-0.26;100.00;101060.94;5001409;28;20044;-75
2022/12/11 03:08:01;;;;;;;267.95;43.85;;;;;;;-0.31;100.00;101054.91;5005063;28;20128;-77
2022/12/11 03:10:26;;;;;;;277.75;40.40;;;;;;;-0.30;100.00;101051.44;5000487;28;20145;-76
2022/12/11 03:12:55;;;;;;;225.60;40.85;;;;;;;-0.28;100.00;101049.63;5000401;28;20110;-75
2022/12/11 03:15:29;;;;;;;250.98;41.30;;;;;;;-0.21;100.00;101056.50;5001632;28;20065;-75
2022/12/11 03:18:17;;;;;;;241.20;40.20;;;;;;;-0.29;100.00;101046.16;4996890;28;20403;-76
2022/12/11 03:20:59;;;;;;;216.80;37.92;;;;;;;-0.24;100.00;101053.94;4999922;28;20053;-76
2022/12/11 03:23:50;;;;;;;203.80;36.97;;;;;;;-0.24;100.00;101058.31;5000327;28;20049;-76
2022/12/11 03:26:19;;;;;;;162.60;34.50;;;;;;;-0.25;100.00;101060.06;4998127;28;20158;-76
2022/12/11 03:28:54;;;;;;;221.70;39.30;;;;;;;-0.27;100.00;101060.06;4999620;28;20044;-76
2022/12/11 03:31:38;;;;;;;217.63;40.63;;;;;;;-0.20;100.00;101060.88;4999975;28;20045;-76
2022/12/11 03:34:12;;;;;;;216.68;37.08;;;;;;;-0.21;100.00;101061.72;4991618;28;20050;-75
2022/12/11 03:36:38;;;;;;;179.43;35.40;;;;;;;-0.21;100.00;101053.00;4995735;28;20780;-76
2022/12/11 03:39:12;;;;;;;202.57;38.58;;;;;;;-0.22;100.00;101052.16;4995483;28;20072;-76
2022/12/11 03:41:40;;;;;;;195.57;35.92;;;;;;;-0.18;100.00;101059.06;5001255;28;20034;-74
2022/12/11 03:44:07;;;;;;;203.45;38.50;;;;;;;-0.16;100.00;101065.16;5000675;28;20045;-76
2022/12/11 03:46:37;;;;;;;205.63;38.45;;;;;;;-0.14;100.00;101062.53;4996399;28;20034;-74
2022/12/11 03:49:09;;;;;;;160.80;33.17;;;;;;;-0.14;100.00;101055.53;5000978;28;20081;-76
2022/12/11 03:51:36;;;;;;;190.77;36.33;;;;;;;-0.13;100.00;101056.38;4999352;28;20052;-76
2022/12/11 03:54:02;;;;;;;181.75;35.28;;;;;;;-0.09;100.00;101047.59;5002345;28;20041;-74
2022/12/11 03:56:31;;;;;;;182.02;36.72;;;;;;;-0.15;100.00;101051.19;4998499;28;20026;-77
2022/12/11 03:58:57;;;;;;;172.65;36.30;;;;;;;-0.07;100.00;101053.66;4999272;28;20033;-75
2022/12/11 04:01:22;;;;;;;228.02;42.05;;;;;;;-0.14;100.00;101047.66;5011569;28;20053;-75
2022/12/11 04:03:48;;;;;;;188.13;38.50;;;;;;;-0.05;100.00;101041.38;5001355;28;20115;-76
2022/12/11 04:06:13;;;;;;;167.98;34.17;;;;;;;-0.03;100.00;101035.25;5014255;28;20042;-77
2022/12/11 04:08:39;;;;;;;159.00;34.50;;;;;;;-0.01;100.00;101035.22;5000412;28;20446;-75
2022/12/11 04:15:00;;;;;;;189.93;36.92;;;;;;;0.04;100.00;101033.38;5007140;28;20171;-75
2022/12/11 04:16:34;;;;;;;181.77;35.42;;;;;;;0.09;100.00;101033.28;5003078;28;20124;-76
2022/12/11 04:24:27;;;;;;;179.07;36.08;;;;;;;0.01;100.00;101036.06;4992932;28;20065;-76
2022/12/11 04:26:52;;;;;;;181.68;38.03;;;;;;;0.00;100.00;101039.59;4995591;28;20147;-76
2022/12/11 04:29:18;;;;;;;180.40;35.13;;;;;;;0.01;100.00;101030.81;4999652;28;20573;-73
2022/12/11 04:31:44;;;;;;;182.82;36.53;;;;;;;0.05;100.00;101029.88;4994791;28;20045;-75
2022/12/11 04:34:10;;;;;;;194.68;38.67;;;;;;;0.03;100.00;101034.28;5014071;28;20042;-76
2022/12/11 04:36:36;;;;;;;190.63;39.92;;;;;;;0.03;100.00;101038.66;4994118;28;20045;-75
2022/12/11 04:39:04;;;;;;;185.18;37.80;;;;;;;0.01;100.00;101036.06;4999092;28;20133;-75
2022/12/11 04:41:29;;;;;;;181.60;36.58;;;;;;;0.08;100.00;101032.44;4992912;28;20050;-75
2022/12/11 04:43:54;;;;;;;156.90;37.15;;;;;;;0.02;100.00;101027.31;4994829;28;20038;-77
2022/12/11 04:46:23;;;;;;;190.93;36.72;;;;;;;0.09;100.00;101022.81;4998918;28;20048;-76
2022/12/11 04:48:49;;;;;;;212.63;37.38;;;;;;;0.05;100.00;101014.16;4997601;28;20073;-74
2022/12/11 04:51:15;;;;;;;174.43;39.13;;;;;;;0.15;100.00;101020.06;4989699;28;20042;-76
2022/12/11 04:53:41;;;;;;;173.15;36.47;;;;;;;0.16;100.00;101014.81;4998215;28;20044;-76
2022/12/11 04:56:09;;;;;;;178.60;38.63;;;;;;;0.13;100.00;101014.00;4991183;28;20081;-77
2022/12/11 04:58:35;;;;;;;183.63;38.22;;;;;;;0.12;100.00;101017.53;4996493;28;20042;-74
2022/12/11 05:01:12;;;;;;;194.68;37.97;;;;;;;0.16;100.00;101014.81;5002049;28;20042;-76
2022/12/11 05:03:38;;;;;;;191.52;36.88;;;;;;;0.09;100.00;101010.56;4996123;28;20129;-77
2022/12/11 05:06:03;;;;;;;192.60;37.60;;;;;;;0.07;100.00;101009.75;4996687;28;20471;-77
2022/12/11 05:08:29;;;;;;;171.13;38.20;;;;;;;0.09;100.00;101013.19;4998718;28;20050;-76
2022/12/11 05:10:57;;;;;;;193.30;38.60;;;;;;;0.13;100.00;101014.00;4991757;28;20034;-77
2022/12/11 05:13:23;;;;;;;174.45;38.95;;;;;;;0.15;100.00;101012.22;5003070;28;20053;-75
2022/12/11 05:15:49;;;;;;;189.25;38.15;;;;;;;0.15;100.00;101020.06;4998508;28;20503;-75
2022/12/11 05:18:14;;;;;;;150.88;34.88;;;;;;;0.26;100.00;101023.41;5014353;28;20113;-75
2022/12/11 05:20:40;;;;;;;177.13;38.90;;;;;;;0.16;100.00;101027.06;4997295;28;20045;-76
2022/12/11 05:23:05;;;;;;;173.27;37.58;;;;;;;0.11;100.00;101019.28;4994378;28;20033;-76
2022/12/11 05:25:31;;;;;;;157.20;36.97;;;;;;;0.12;100.00;101025.38;5001266;28;20041;-75
2022/12/11 05:27:56;;;;;;;186.55;36.17;;;;;;;0.15;100.00;101027.94;5013904;28;20034;-75
2022/12/11 05:30:22;;;;;;;164.77;38.17;;;;;;;0.20;100.00;101027.00;5001443;28;20125;-76
2022/12/11 05:32:47;;;;;;;173.93;37.47;;;;;;;0.18;100.00;101020.91;5002120;28;20065;-75
2022/12/11 05:35:13;;;;;;;187.35;37.13;;;;;;;0.16;100.00;101017.44;5002158;28;20152;-76
2022/12/11 05:37:38;;;;;;;195.68;37.50;;;;;;;0.19;100.00;101016.50;5002241;28;20037;-75
2022/12/11 05:40:05;;;;;;;171.20;37.38;;;;;;;0.21;100.00;101014.75;5001356;28;20037;-76
2022/12/11 05:42:31;;;;;;;196.18;40.83;;;;;;;0.15;100.00;101007.84;5000580;28;20562;-75
2022/12/11 05:44:57;;;;;;;169.77;36.10;;;;;;;0.17;100.00;101013.06;5006376;28;20038;-73
2022/12/11 05:47:22;;;;;;;176.05;41.00;;;;;;;0.09;100.00;101010.56;5007878;28;20030;-74
2022/12/11 05:49:48;;;;;;;170.82;37.60;;;;;;;0.15;100.00;101009.59;5008178;28;20624;-76
2022/12/11 05:52:15;;;;;;;150.07;36.60;;;;;;;0.13;100.00;101006.13;5008722;28;20444;-74
2022/12/11 05:54:41;;;;;;;168.60;36.22;;;;;;;0.18;100.00;101006.91;5006451;28;20093;-76
2022/12/11 05:57:06;;;;;;;173.45;37.88;;;;;;;0.13;100.00;101008.75;5006929;28;20097;-75
2022/12/11 05:59:32;;;;;;;192.00;39.33;;;;;;;0.12;100.00;101002.66;5004496;28;20037;-76
2022/12/11 06:01:57;;;;;;;170.52;38.63;;;;;;;0.15;100.00;101004.34;5006283;28;20050;-74
2022/12/11 06:04:23;;;;;;;152.50;37.95;;;;;;;0.17;100.00;100997.34;5006471;28;20050;-75
2022/12/11 06:06:48;;;;;;;177.77;38.00;;;;;;;0.17;100.00;100995.56;5006337;28;20042;-75
2022/12/11 06:09:15;;;;;;;163.90;36.83;;;;;;;0.12;100.00;101000.03;5006128;28;20048;-75
2022/12/11 06:11:41;;;;;;;181.18;40.85;;;;;;;0.15;100.00;100996.47;4997336;28;20034;-75
2022/12/11 06:14:08;;;;;;;173.55;37.50;;;;;;;0.25;100.00;100993.69;5008535;28;20034;-75
2022/12/11 06:16:34;;;;;;;152.05;37.72;;;;;;;0.19;100.00;100993.78;5018569;28;20049;-74
2022/12/11 06:18:59;;;;;;;148.10;35.10;;;;;;;0.25;100.00;100987.53;5002051;28;20044;-75
2022/12/11 06:21:28;;;;;;;178.35;39.63;;;;;;;0.25;100.00;100984.94;5032798;28;20034;-76
2022/12/11 06:23:56;;;;;;;170.07;40.95;;;;;;;0.23;100.00;100989.34;5018098;28;20080;-77
2022/12/11 06:26:23;;;;;;;166.63;41.97;;;;;;;0.12;100.00;100989.53;5001253;28;20073;-74
2022/12/11 06:28:49;;;;;;;150.63;38.90;;;;;;;0.17;100.00;100992.09;5010133;28;20042;-77
2022/12/11 06:31:15;;;;;;;161.23;38.30;;;;;;;0.14;100.00;100998.22;5014648;28;20620;-74
2022/12/11 06:33:41;;;;;;;162.93;38.92;;;;;;;0.20;100.00;100994.63;5009700;28;20502;-74
2022/12/11 06:36:12;;;;;;;148.48;37.88;;;;;;;0.19;100.00;100998.16;5001074;28;20065;-76
2022/12/11 06:38:38;;;;;;;151.13;38.00;;;;;;;0.14;100.00;100992.13;5001866;28;20044;-73
2022/12/11 06:41:05;;;;;;;155.48;38.05;;;;;;;0.25;100.00;100998.94;5001621;28;20034;-77
2022/12/11 06:43:33;;;;;;;152.65;34.90;;;;;;;0.29;100.00;101006.72;4993895;28;20848;-76
2022/12/11 06:45:58;;;;;;;173.18;37.30;;;;;;;0.31;100.00;101002.34;4998179;28;20857;-76
2022/12/11 06:48:24;;;;;;;154.05;39.15;;;;;;;0.30;100.00;101008.44;4999178;28;20030;-75
2022/12/11 06:50:49;;;;;;;150.45;35.35;;;;;;;0.26;100.00;101010.28;5010366;28;20097;-76
2022/12/11 06:53:15;;;;;;;133.98;34.30;;;;;;;0.27;100.00;101006.75;4996320;28;20076;-75
2022/12/11 06:55:41;;;;;;;134.85;34.13;;;;;;;0.27;100.00;101005.91;4997771;28;20042;-75
2022/12/11 06:58:07;;;;;;;146.63;36.10;;;;;;;0.24;100.00;101006.81;4996927;28;20161;-75
2022/12/11 07:00:37;;;;;;;141.10;35.33;;;;;;;0.30;100.00;101013.69;5017225;28;20042;-75
2022/12/11 07:03:03;;;;;;;149.68;35.03;;;;;;;0.27;100.00;101011.13;5015068;28;20132;-74
2022/12/11 07:05:30;;;;;;;135.25;35.83;;;;;;;0.25;100.00;101019.91;5000613;28;20079;-75
2022/12/11 07:08:01;;;;;;;141.95;33.13;;;;;;;0.31;100.00;101013.69;4997383;28;20041;-73
2022/12/11 07:10:27;;;;;;;144.85;34.97;;;;;;;0.22;100.00;101017.31;4998121;28;20030;-75
2022/12/11 07:12:53;;;;;;;131.25;31.95;;;;;;;0.22;100.00;101022.56;5003194;28;20052;-74
2022/12/11 07:15:18;;;;;;;138.50;35.58;;;;;;;0.17;100.00;101021.78;5000478;28;20034;-76
2022/12/11 07:17:44;;;;;;;139.90;33.00;;;;;;;0.16;100.00;101019.22;5002816;28;20041;-75
2022/12/11 07:20:10;;;;;;;136.48;32.83;;;;;;;0.20;100.00;101026.09;5003753;28;20046;-74
2022/12/11 07:22:35;;;;;;;129.63;33.38;;;;;;;0.13;100.00;101025.34;4996612;28;20038;-77
2022/12/11 07:25:01;;;;;;;121.63;32.58;;;;;;;0.15;100.00;101025.31;4998015;28;20030;-76
2022/12/11 07:27:27;;;;;;;132.25;34.72;;;;;;;0.16;100.00;101024.44;5003825;28;20038;-74
2022/12/11 07:29:54;;;;;;;126.13;33.78;;;;;;;0.22;100.00;101019.09;4998085;28;20081;-76
2022/12/11 07:32:20;;;;;;;133.13;33.67;;;;;;;0.20;100.00;101021.75;5002240;28;20064;-78
2022/12/11 07:34:47;;;;;;;139.98;35.13;;;;;;;0.26;100.00;101026.00;5001534;28;20683;-76
2022/12/11 07:37:12;;;;;;;117.18;33.78;;;;;;;0.31;100.00;101023.31;4992013;28;20069;-75
2022/12/11 07:39:38;;;;;;;124.22;30.75;;;;;;;0.33;100.00;101024.13;5002741;28;20069;-75
2022/12/11 07:42:03;;;;;;;132.80;32.85;;;;;;;0.19;100.00;101027.84;5004171;28;20434;-76
2022/12/11 07:44:29;;;;;;;105.57;31.10;;;;;;;0.18;100.00;101028.75;4995939;28;20044;-75
2022/12/11 07:46:55;;;;;;;120.72;32.13;;;;;;;0.29;100.00;101032.94;5002204;28;20116;-76
2022/12/11 07:49:20;;;;;;;112.47;30.40;;;;;;;0.25;100.00;101029.50;5014328;28;20120;-76
2022/12/11 07:51:46;;;;;;;93.22;28.40;;;;;;;0.26;100.00;101036.50;4999273;28;20038;-76
2022/12/11 07:54:15;;;;;;;102.35;29.08;;;;;;;0.30;100.00;101030.28;4989399;28;20485;-76
2022/12/11 07:56:42;;;;;;;92.70;29.35;;;;;;;0.28;100.00;101031.22;5012329;28;20042;-75
2022/12/11 07:59:08;;;;;;;96.28;30.17;;;;;;;0.24;100.00;101033.03;5002577;28;20053;-76
2022/12/11 08:01:35;;;;;;;90.57;26.98;;;;;;;0.21;100.00;101036.59;5001981;28;20038;-74
2022/12/11 08:04:02;;;;;;;84.97;26.15;;;;;;;0.29;100.00;101038.19;5001380;28;20517;-75
2022/12/11 08:06:30;;;;;;;81.18;27.25;;;;;;;0.29;100.00;101039.06;5002488;28;20628;-75
2022/12/11 08:08:57;;;;;;;76.88;23.65;;;;;;;0.24;100.00;101035.66;5000362;28;20044;-76
2022/12/11 08:11:24;;;;;;;75.88;25.85;;;;;;;0.28;100.00;101039.94;5001506;28;20700;-74
2022/12/11 08:13:49;;;;;;;78.85;23.33;;;;;;;0.32;100.00;101038.16;5002323;28;20613;-76
2022/12/11 08:16:16;;;;;;;67.85;22.70;;;;;;;0.35;100.00;101036.34;5000860;28;20037;-76
2022/12/11 08:18:43;;;;;;;73.25;24.95;;;;;;;0.29;100.00;101041.69;5000204;28;20037;-76
2022/12/11 08:21:12;;;;;;;62.55;23.00;;;;;;;0.36;100.00;101043.31;5001230;28;20073;-76
2022/12/11 08:23:37;;;;;;;66.75;22.00;;;;;;;0.35;100.00;101041.59;5001871;28;20045;-77
2022/12/11 08:26:06;;;;;;;70.40;22.48;;;;;;;0.34;100.00;101044.22;5016188;28;20037;-75
2022/12/11 08:28:32;;;;;;;71.25;23.08;;;;;;;0.36;100.00;101040.69;4999800;28;20376;-75
2022/12/11 08:30:58;;;;;;;66.57;24.48;;;;;;;0.34;100.00;101044.22;4999853;28;20029;-75
2022/12/11 08:33:23;;;;;;;63.67;22.20;;;;;;;0.38;100.00;101045.91;5017291;28;20593;-74
2022/12/11 08:35:49;;;;;;;51.60;19.63;;;;;;;0.24;100.00;101033.03;5001969;28;20070;-76
2022/12/11 08:38:14;;;;;;;65.55;21.45;;;;;;;0.25;100.00;101038.25;4998106;28;20103;-74
2022/12/11 08:40:40;;;;;;;68.00;24.25;;;;;;;0.27;100.00;101037.38;5001985;28;20044;-76
2022/12/11 08:43:05;;;;;;;62.00;22.40;;;;;;;0.40;100.00;101036.22;4997877;28;20064;-75
2022/12/11 08:45:31;;;;;;;63.40;22.05;;;;;;;0.24;100.00;101033.88;5005741;28;20030;-76
2022/12/11 08:47:58;;;;;;;52.85;20.25;;;;;;;0.29;100.00;101036.44;4999507;28;20045;-75
2022/12/11 08:50:24;;;;;;;65.90;21.30;;;;;;;0.32;100.00;101033.75;5000489;28;20092;-75
2022/12/11 08:52:49;;;;;;;59.67;24.55;;;;;;;0.41;100.00;101017.88;4993651;28;20041;-76
2022/12/11 08:55:15;;;;;;;60.72;21.48;;;;;;;0.36;100.00;101024.94;5003370;28;20084;-75
2022/12/11 08:57:40;;;;;;;62.20;21.55;;;;;;;0.33;100.00;101022.38;5031919;28;20644;-76
2022/12/11 09:00:08;;;;;;;57.72;20.50;;;;;;;0.38;100.00;101022.28;5010826;28;20029;-76
2022/12/11 09:02:34;;;;;;;65.00;20.10;;;;;;;0.38;100.00;101027.53;5000188;28;20049;-76
2022/12/11 09:04:59;;;;;;;53.58;19.70;;;;;;;0.39;100.00;101024.00;5001643;28;20041;-76
2022/12/11 09:07:25;;;;;;;63.35;20.77;;;;;;;0.36;100.00;101018.84;4997097;28;20034;-74
2022/12/11 09:09:53;;;;;;;56.67;19.77;;;;;;;0.43;100.00;101023.94;4995344;28;20561;-75
2022/12/11 09:12:19;;;;;;;58.53;20.55;;;;;;;0.38;100.00;101023.16;4996811;28;20054;-77
2022/12/11 09:14:44;;;;;;;63.50;21.63;;;;;;;0.29;100.00;101025.94;4997156;28;20065;-74
2022/12/11 09:17:10;;;;;;;61.90;21.50;;;;;;;0.35;100.00;101027.59;5035008;28;20068;-76
2022/12/11 09:19:35;;;;;;;64.68;22.10;;;;;;;0.34;100.00;101029.34;4997588;28;20037;-74
2022/12/11 09:33:22;;;;;;;52.55;20.60;;;;;;;0.32;100.00;101025.91;5005312;28;20037;-73
2022/12/11 09:35:56;;;;;;;60.72;20.15;;;;;;;0.43;100.00;101023.06;4998273;28;20037;-75
2022/12/11 09:38:22;;;;;;;55.63;20.92;;;;;;;0.46;100.00;101026.50;4985860;28;20050;-74
2022/12/11 09:40:47;;;;;;;53.38;19.33;;;;;;;0.37;100.00;101029.31;5001940;28;20053;-74
2022/12/11 09:43:44;;;;;;;49.28;18.73;;;;;;;0.33;100.00;101022.38;5002909;28;20321;-74
2022/12/11 09:46:12;;;;;;;51.25;18.42;;;;;;;0.48;100.00;101032.56;4998939;28;20045;-74
2022/12/11 09:48:42;;;;;;;53.70;20.00;;;;;;;0.52;100.00;101015.03;5001056;28;20034;-74
2022/12/11 09:51:30;;;;;;;52.10;19.10;;;;;;;0.47;100.00;101027.38;5002876;28;20767;-73
2022/12/11 09:54:00;;;;;;;48.63;18.55;;;;;;;0.53;100.00;101008.88;4981273;28;20052;-73
2022/12/11 09:56:32;;;;;;;52.67;19.50;;;;;;;0.51;100.00;101010.69;5001430;28;20034;-75
2022/12/11 09:59:03;;;;;;;46.50;17.57;;;;;;;0.57;100.00;101005.31;5009322;28;20426;-76
2022/12/11 10:01:47;;;;;;;47.92;19.20;;;;;;;0.65;100.00;101008.66;4987943;28;20041;-75
2022/12/11 10:04:34;;;;;;;58.03;19.02;;;;;;;0.54;100.00;101007.97;5004556;28;20045;-75
2022/12/11 10:07:14;;;;;;;50.95;18.60;;;;;;;0.49;100.00;101008.06;5001363;28;20109;-75
2022/12/11 10:09:49;;;;;;;49.92;18.70;;;;;;;0.54;100.00;101007.13;4999872;28;21037;-75
2022/12/11 10:12:32;;;;;;;47.78;19.02;;;;;;;0.70;100.00;101009.44;4986545;28;20099;-74
2022/12/11 10:15:30;;;;;;;51.53;18.55;;;;;;;0.72;100.00;101012.88;4996442;28;20080;-75
2022/12/11 10:17:58;;;;;;;54.58;19.05;;;;;;;0.86;100.00;101002.09;4963127;28;20038;-76
2022/12/11 10:20:38;;;;;;;45.28;17.80;;;;;;;0.96;100.00;101005.41;4964399;28;20125;-73
2022/12/11 10:23:06;;;;;;;45.67;17.90;;;;;;;0.89;100.00;101007.28;5003319;28;20072;-74
2022/12/11 10:25:40;;;;;;;58.65;19.30;;;;;;;0.77;100.00;101005.78;5001738;28;20786;-74
2022/12/11 10:28:12;;;;;;;47.42;17.85;;;;;;;0.82;100.00;101010.06;4979411;28;20072;-74
2022/12/11 10:30:48;;;;;;;44.43;17.57;;;;;;;0.83;100.00;100999.53;4999804;28;20798;-76
2022/12/11 10:33:21;;;;;;;49.85;18.40;;;;;;;0.82;100.00;101003.06;4995777;28;20472;-74
2022/12/11 10:35:58;;;;;;;48.55;18.67;;;;;;;0.74;100.00;101007.59;5002286;28;20053;-74
2022/12/11 10:38:28;;;;;;;47.15;18.67;;;;;;;0.73;100.00;101004.09;4997962;28;20037;-73
2022/12/11 10:40:58;;;;;;;42.25;17.27;;;;;;;0.78;100.00;101006.63;4968653;28;20157;-74
2022/12/11 10:43:39;;;;;;;48.85;18.55;;;;;;;0.81;100.00;101000.47;4996183;28;20072;-74
2022/12/11 10:46:11;;;;;;;44.67;17.45;;;;;;;0.84;100.00;101003.03;4990905;28;20046;-74
2022/12/11 10:48:46;;;;;;;43.03;18.55;;;;;;;0.78;100.00;100996.13;5000680;28;20504;-74
2022/12/11 10:51:13;;;;;;;48.67;18.65;;;;;;;0.91;100.00;100997.63;4973531;28;20123;-75
2022/12/11 10:53:39;;;;;;;40.53;18.58;;;;;;;0.68;100.00;100991.97;4997842;28;20038;-74
2022/12/11 10:56:05;;;;;;;44.30;18.58;;;;;;;0.70;100.00;100995.41;4966644;28;20045;-73
2022/12/11 10:58:32;;;;;;;40.25;16.42;;;;;;;0.63;100.00;100994.69;4978561;28;20050;-73
2022/12/11 11:01:13;;;;;;;44.08;18.15;;;;;;;0.73;100.00;100995.38;4987598;28;20038;-75
2022/12/11 11:03:53;;;;;;;42.15;18.60;;;;;;;0.86;100.00;100999.47;5002612;28;20037;-75
2022/12/11 11:06:21;;;;;;;43.50;18.73;;;;;;;0.82;100.00;100987.31;4988236;28;20873;-75
2022/12/11 11:08:49;;;;;;;42.70;18.13;;;;;;;0.80;100.00;100993.47;4972311;28;20140;-74
2022/12/11 11:11:22;;;;;;;47.05;19.70;;;;;;;0.89;100.00;100994.16;4992556;28;20300;-73
2022/12/11 11:13:48;;;;;;;41.75;19.73;;;;;;;0.85;100.00;100989.00;5002573;28;20723;-75
2022/12/11 11:16:17;;;;;;;47.70;21.73;;;;;;;0.84;100.00;100990.75;5004304;28;20042;-73
2022/12/11 11:18:53;;;;;;;51.35;22.27;;;;;;;0.87;100.00;100976.72;4978148;28;20045;-73
2022/12/11 11:21:22;;;;;;;57.38;22.48;;;;;;;0.87;100.00;100981.97;4988085;28;20049;-75
2022/12/11 11:23:47;;;;;;;45.70;19.55;;;;;;;0.98;100.00;100974.72;4999143;28;20268;-74
2022/12/11 11:26:14;;;;;;;52.83;21.75;;;;;;;1.06;100.00;100974.56;4969296;28;20122;-73
2022/12/11 11:28:45;;;;;;;52.60;20.70;;;;;;;1.16;100.00;100968.22;4994715;28;20222;-75